Time,TemperatureF,DewpointF,PressureIn,WindDirection,WindDirectionDegrees,WindSpeedMPH,WindSpeedGustMPH,Humidity,HourlyPrecipIn,Conditions,Clouds,dailyrainin,SoftwareType,DateUTC
2013-05-13 00:01:00,43.1,30.1,29.98,NNE,17,0.0,0.0,60,0.00,,,0.00,Wunderground v.1.15,2013-05-13 04:01:00,
2013-05-13 00:06:00,43.1,30.1,29.98,NNE,16,0.0,0.0,60,0.00,,,0.00,Wunderground v.1.15,2013-05-13 04:06:00,
2013-05-13 00:09:00,43.1,30.1,29.98,NNE,16,0.0,0.0,60,0.00,,,0.00,Wunderground v.1.15,2013-05-13 04:09:00,
2013-05-13 00:10:00,42.9,30.0,29.98,NNE,16,0.0,0.0,60,0.00,,,0.00,Wunderground v.1.15,2013-05-13 04:10:00,
2013-05-13 00:16:00,42.8,29.9,29.98,NNE,16,0.0,0.0,60,0.00,,,0.00,Wunderground v.1.15,2013-05-13 04:16:00,
2013-05-13 00:22:00,42.8,30.3,29.98,NNE,16,0.0,0.0,61,0.00,,,0.00,Wunderground v.1.15,2013-05-13 04:22:00,
2013-05-13 00:27:00,42.6,30.9,29.98,NE,49,0.0,0.0,63,0.00,,,0.00,Wunderground v.1.15,2013-05-13 04:27:00,
2013-05-13 00:28:00,42.6,31.3,29.98,NE,41,0.0,0.0,64,0.00,,,0.00,Wunderground v.1.15,2013-05-13 04:28:00,
2013-05-13 00:35:00,42.5,31.2,29.98,NNE,17,0.0,0.0,64,0.00,,,0.00,Wunderground v.1.15,2013-05-13 04:35:00,
2013-05-13 00:41:00,42.3,31.4,29.98,NNE,17,0.0,0.0,65,0.00,,,0.00,Wunderground v.1.15,2013-05-13 04:41:00,
2013-05-13 00:46:00,42.2,31.6,29.98,NNE,16,0.0,0.0,66,0.00,,,0.00,Wunderground v.1.15,2013-05-13 04:46:00,
2013-05-13 00:52:00,42.1,31.2,29.98,NNE,21,0.0,0.0,65,0.00,,,0.00,Wunderground v.1.15,2013-05-13 04:52:00,
2013-05-13 00:58:00,41.9,31.0,29.98,NE,34,0.0,0.0,65,0.00,,,0.00,Wunderground v.1.15,2013-05-13 04:58:00,
2013-05-13 01:05:00,41.8,31.6,29.98,NNE,17,0.0,1.0,67,0.00,,,0.00,Wunderground v.1.15,2013-05-13 05:05:00,
2013-05-13 01:10:00,41.8,30.9,29.98,NNE,16,0.0,0.0,65,0.00,,,0.00,Wunderground v.1.15,2013-05-13 05:10:00,
2013-05-13 01:16:00,41.8,31.3,29.98,NNE,16,0.0,0.0,66,0.00,,,0.00,Wunderground v.1.15,2013-05-13 05:16:00,
2013-05-13 01:22:00,41.8,32.0,29.98,NNE,17,0.0,0.0,68,0.00,,,0.00,Wunderground v.1.15,2013-05-13 05:22:00,
2013-05-13 01:27:00,41.6,32.2,29.98,NNE,16,0.0,0.0,69,0.00,,,0.00,Wunderground v.1.15,2013-05-13 05:27:00,
2013-05-13 01:37:00,41.3,31.9,29.98,NNE,17,0.0,0.0,69,0.00,,,0.00,Wunderground v.1.15,2013-05-13 05:37:00,
2013-05-13 01:42:00,41.2,31.4,29.98,NNE,17,0.0,0.0,68,0.00,,,0.00,Wunderground v.1.15,2013-05-13 05:42:00,
2013-05-13 01:48:00,41.2,31.4,29.97,NNE,17,0.0,0.0,68,0.00,,,0.00,Wunderground v.1.15,2013-05-13 05:48:00,
2013-05-13 01:54:00,41.1,31.0,29.97,NE,37,0.0,0.0,67,0.00,,,0.00,Wunderground v.1.15,2013-05-13 05:54:00,
2013-05-13 02:00:00,41.2,29.9,29.97,NNE,17,0.0,0.0,64,0.00,,,0.00,Wunderground v.1.15,2013-05-13 06:00:00,
2013-05-13 02:06:00,41.5,29.8,29.97,NNE,16,0.0,2.0,63,0.00,,,0.00,Wunderground v.1.15,2013-05-13 06:06:00,
2013-05-13 02:11:00,41.8,29.7,29.97,NNE,16,0.0,0.0,62,0.00,,,0.00,Wunderground v.1.15,2013-05-13 06:11:00,
2013-05-13 02:17:00,41.8,30.5,29.97,NNE,16,0.0,0.0,64,0.00,,,0.00,Wunderground v.1.15,2013-05-13 06:17:00,
2013-05-13 02:22:00,41.8,30.5,29.97,NNE,16,0.0,0.0,64,0.00,,,0.00,Wunderground v.1.15,2013-05-13 06:22:00,
2013-05-13 02:28:00,41.6,30.7,29.97,NNE,16,0.0,0.0,65,0.00,,,0.00,Wunderground v.1.15,2013-05-13 06:28:00,
2013-05-13 02:36:00,41.3,31.2,29.97,NNE,17,0.0,0.0,67,0.00,,,0.00,Wunderground v.1.15,2013-05-13 06:36:00,
2013-05-13 02:42:00,41.2,30.7,29.97,NNE,17,0.0,0.0,66,0.00,,,0.00,Wunderground v.1.15,2013-05-13 06:42:00,
2013-05-13 02:47:00,41.1,30.2,29.97,NNE,17,0.0,0.0,65,0.00,,,0.00,Wunderground v.1.15,2013-05-13 06:47:00,
2013-05-13 02:57:00,40.9,31.1,29.97,East,82,0.0,0.0,68,0.00,,,0.00,Wunderground v.1.15,2013-05-13 06:57:00,
2013-05-13 03:07:00,40.6,30.9,29.98,ENE,62,0.0,0.0,68,0.00,,,0.00,Wunderground v.1.15,2013-05-13 07:07:00,
2013-05-13 03:14:00,40.6,30.9,29.98,NNE,17,0.0,1.0,68,0.00,,,0.00,Wunderground v.1.15,2013-05-13 07:14:00,
2013-05-13 03:20:00,40.8,30.3,29.98,NNE,16,0.0,0.0,66,0.00,,,0.00,Wunderground v.1.15,2013-05-13 07:20:00,
2013-05-13 03:27:00,40.9,30.8,29.98,NNE,16,0.0,0.0,67,0.00,,,0.00,Wunderground v.1.15,2013-05-13 07:27:00,
2013-05-13 03:34:00,41.1,30.6,29.98,NNE,17,0.0,0.0,66,0.00,,,0.00,Wunderground v.1.15,2013-05-13 07:34:00,
2013-05-13 03:39:00,41.6,29.1,29.98,NNE,16,0.0,3.0,61,0.00,,,0.00,Wunderground v.1.15,2013-05-13 07:39:00,
2013-05-13 03:55:00,44.1,29.8,29.98,NNE,17,1.0,1.0,57,0.00,,,0.00,Wunderground v.1.15,2013-05-13 07:55:00,
2013-05-13 04:01:00,44.1,30.3,29.98,North,7,1.0,1.0,58,0.00,,,0.00,Wunderground v.1.15,2013-05-13 08:01:00,
2013-05-13 04:07:00,44.1,30.7,29.98,North,7,0.0,1.0,59,0.00,,,0.00,Wunderground v.1.15,2013-05-13 08:07:00,
2013-05-13 04:12:00,44.1,30.7,29.98,North,8,0.0,1.0,59,0.00,,,0.00,Wunderground v.1.15,2013-05-13 08:12:00,
2013-05-13 04:18:00,43.9,30.5,29.98,North,7,0.0,2.0,59,0.00,,,0.00,Wunderground v.1.15,2013-05-13 08:18:00,
2013-05-13 04:25:00,43.6,31.0,29.98,North,7,0.0,2.0,61,0.00,,,0.00,Wunderground v.1.15,2013-05-13 08:25:00,
2013-05-13 04:30:00,43.5,30.9,29.98,North,7,0.0,0.0,61,0.00,,,0.00,Wunderground v.1.15,2013-05-13 08:30:00,
2013-05-13 04:37:00,43.2,31.1,29.98,North,7,0.0,0.0,62,0.00,,,0.00,Wunderground v.1.15,2013-05-13 08:37:00,
2013-05-13 04:45:00,43.1,30.6,29.98,North,7,0.0,1.0,61,0.00,,,0.00,Wunderground v.1.15,2013-05-13 08:45:00,
2013-05-13 04:50:00,43.1,30.6,29.98,North,7,0.0,0.0,61,0.00,,,0.00,Wunderground v.1.15,2013-05-13 08:50:00,
2013-05-13 04:57:00,42.9,30.0,29.98,North,7,0.0,0.0,60,0.00,,,0.00,Wunderground v.1.15,2013-05-13 08:57:00,
2013-05-13 05:05:00,42.9,30.0,29.98,North,7,0.0,1.0,60,0.00,,,0.00,Wunderground v.1.15,2013-05-13 09:05:00,
2013-05-13 05:10:00,42.8,30.3,29.98,North,7,0.0,0.0,61,0.00,,,0.00,Wunderground v.1.15,2013-05-13 09:10:00,
2013-05-13 05:16:00,42.6,30.5,29.98,North,7,0.0,0.0,62,0.00,,,0.00,Wunderground v.1.15,2013-05-13 09:16:00,
2013-05-13 05:22:00,42.5,30.4,29.98,North,7,0.0,0.0,62,0.00,,,0.00,Wunderground v.1.15,2013-05-13 09:22:00,
2013-05-13 05:28:00,42.2,30.9,29.98,North,7,0.0,0.0,64,0.00,,,0.00,Wunderground v.1.15,2013-05-13 09:28:00,
2013-05-13 05:36:00,41.9,31.4,29.99,North,7,0.0,0.0,66,0.00,,,0.00,Wunderground v.1.15,2013-05-13 09:36:00,
2013-05-13 05:41:00,41.8,30.9,29.99,NW,306,0.0,0.0,65,0.00,,,0.00,Wunderground v.1.15,2013-05-13 09:41:00,
2013-05-13 05:47:00,41.6,30.7,30.00,NW,306,0.0,0.0,65,0.00,,,0.00,Wunderground v.1.15,2013-05-13 09:47:00,
2013-05-13 05:52:00,41.6,30.3,30.00,North,0,0.0,0.0,64,0.00,,,0.00,Wunderground v.1.15,2013-05-13 09:52:00,
2013-05-13 05:57:00,41.9,30.2,30.00,North,0,1.0,3.0,63,0.00,,,0.00,Wunderground v.1.15,2013-05-13 09:57:00,
2013-05-13 06:02:00,42.2,29.7,30.00,North,0,1.0,2.0,61,0.00,,,0.00,Wunderground v.1.15,2013-05-13 10:02:00,
2013-05-13 06:08:00,42.5,29.2,30.00,North,0,1.0,2.0,59,0.00,,,0.00,Wunderground v.1.15,2013-05-13 10:08:00,
2013-05-13 06:15:00,42.6,29.7,30.00,North,0,0.0,1.0,60,0.00,,,0.00,Wunderground v.1.15,2013-05-13 10:15:00,
2013-05-13 06:20:00,42.6,29.3,30.00,North,0,0.0,0.0,59,0.00,,,0.00,Wunderground v.1.15,2013-05-13 10:20:00,
2013-05-13 06:26:00,43.1,28.0,30.00,NNW,343,1.0,1.0,55,0.00,,,0.00,Wunderground v.1.15,2013-05-13 10:26:00,
2013-05-13 06:32:00,43.6,27.6,30.00,North,350,1.0,2.0,53,0.00,,,0.00,Wunderground v.1.15,2013-05-13 10:32:00,
2013-05-13 06:38:00,43.8,30.0,30.00,North,349,0.0,2.0,58,0.00,,,0.00,Wunderground v.1.15,2013-05-13 10:38:00,
2013-05-13 06:47:00,43.5,31.7,30.01,North,349,0.0,0.0,63,0.00,,,0.00,Wunderground v.1.15,2013-05-13 10:47:00,
2013-05-13 06:52:00,43.2,32.2,30.01,North,349,0.0,0.0,65,0.00,,,0.00,Wunderground v.1.15,2013-05-13 10:52:00,
2013-05-13 06:57:00,43.1,32.5,30.01,North,349,0.0,0.0,66,0.00,,,0.00,Wunderground v.1.15,2013-05-13 10:57:00,
2013-05-13 07:06:00,42.9,32.3,30.01,North,349,0.0,0.0,66,0.00,,,0.00,Wunderground v.1.15,2013-05-13 11:06:00,
2013-05-13 07:11:00,42.9,32.3,30.01,North,349,0.0,0.0,66,0.00,,,0.00,Wunderground v.1.15,2013-05-13 11:11:00,
2013-05-13 07:17:00,43.1,32.5,30.02,North,349,0.0,0.0,66,0.00,,,0.00,Wunderground v.1.15,2013-05-13 11:17:00,
2013-05-13 07:27:00,43.3,32.7,30.02,North,349,0.0,0.0,66,0.00,,,0.00,Wunderground v.1.15,2013-05-13 11:27:00,
2013-05-13 07:32:00,43.6,33.0,30.02,North,349,0.0,0.0,66,0.00,,,0.00,Wunderground v.1.15,2013-05-13 11:32:00,
2013-05-13 07:37:00,43.9,32.9,30.02,North,352,0.0,0.0,65,0.00,,,0.00,Wunderground v.1.15,2013-05-13 11:37:00,
2013-05-13 07:44:00,44.3,33.7,30.02,North,352,0.0,0.0,66,0.00,,,0.00,Wunderground v.1.15,2013-05-13 11:44:00,
2013-05-13 07:50:00,44.6,33.2,30.02,North,349,0.0,1.0,64,0.00,,,0.00,Wunderground v.1.15,2013-05-13 11:50:00,
2013-05-13 07:57:00,45.2,32.5,30.02,North,349,0.0,1.0,61,0.00,,,0.00,Wunderground v.1.15,2013-05-13 11:57:00,
2013-05-13 08:04:00,45.8,31.0,30.03,NE,40,1.0,6.0,56,0.00,,,0.00,Wunderground v.1.15,2013-05-13 12:04:00,
2013-05-13 08:10:00,46.2,29.1,30.03,North,1,1.0,1.0,51,0.00,,,0.00,Wunderground v.1.15,2013-05-13 12:10:00,
2013-05-13 08:17:00,46.5,29.8,30.03,North,3,2.0,3.0,52,0.00,,,0.00,Wunderground v.1.15,2013-05-13 12:17:00,
2013-05-13 08:24:00,46.8,29.6,30.03,North,7,2.0,3.0,51,0.00,,,0.00,Wunderground v.1.15,2013-05-13 12:24:00,
2013-05-13 08:30:00,47.0,29.3,30.04,North,350,2.0,4.0,50,0.00,,,0.00,Wunderground v.1.15,2013-05-13 12:30:00,
2013-05-13 08:37:00,47.1,29.9,30.04,North,0,2.0,4.0,51,0.00,,,0.00,Wunderground v.1.15,2013-05-13 12:37:00,
2013-05-13 08:42:00,47.1,29.9,30.04,ENE,62,2.0,3.0,51,0.00,,,0.00,Wunderground v.1.15,2013-05-13 12:42:00,
2013-05-13 08:48:00,47.3,31.5,30.05,NE,49,2.0,3.0,54,0.00,,,0.00,Wunderground v.1.15,2013-05-13 12:48:00,
2013-05-13 08:57:00,47.6,28.3,30.05,SSE,160,2.0,3.0,47,0.00,,,0.00,Wunderground v.1.15,2013-05-13 12:57:00,
2013-05-13 09:05:00,48.0,29.7,30.06,ESE,121,2.0,7.0,49,0.00,,,0.00,Wunderground v.1.15,2013-05-13 13:05:00,
2013-05-13 09:10:00,48.2,29.4,30.06,ESE,113,2.0,2.0,48,0.00,,,0.00,Wunderground v.1.15,2013-05-13 13:10:00,
2013-05-13 09:17:00,48.5,28.1,30.06,ESE,119,2.0,3.0,45,0.00,,,0.00,Wunderground v.1.15,2013-05-13 13:17:00,
2013-05-13 09:25:00,48.8,28.9,30.06,ESE,120,1.0,2.0,46,0.00,,,0.00,Wunderground v.1.15,2013-05-13 13:25:00,
2013-05-13 09:30:00,49.1,30.2,30.06,NE,56,1.0,3.0,48,0.00,,,0.00,Wunderground v.1.15,2013-05-13 13:30:00,
2013-05-13 09:37:00,49.2,28.7,30.06,East,99,2.0,5.0,45,0.00,,,0.00,Wunderground v.1.15,2013-05-13 13:37:00,
2013-05-13 09:42:00,49.4,30.0,30.06,SE,137,2.0,2.0,47,0.00,,,0.00,Wunderground v.1.15,2013-05-13 13:42:00,
2013-05-13 09:47:00,49.6,30.2,30.06,ESE,103,1.0,3.0,47,0.00,,,0.00,Wunderground v.1.15,2013-05-13 13:47:00,
2013-05-13 09:56:00,49.6,26.8,30.06,ESE,104,2.0,2.0,41,0.00,,,0.00,Wunderground v.1.15,2013-05-13 13:56:00,
2013-05-13 10:01:00,49.8,28.7,30.06,ENE,58,1.0,3.0,44,0.00,,,0.00,Wunderground v.1.15,2013-05-13 14:01:00,
2013-05-13 10:06:00,50.2,31.2,30.06,ENE,62,1.0,3.0,48,0.00,,,0.00,Wunderground v.1.15,2013-05-13 14:06:00,
2013-05-13 10:12:00,50.5,31.0,30.06,ESE,102,1.0,1.0,47,0.00,,,0.00,Wunderground v.1.15,2013-05-13 14:12:00,
2013-05-13 10:18:00,51.1,29.9,30.05,East,90,1.0,4.0,44,0.00,,,0.00,Wunderground v.1.15,2013-05-13 14:18:00,
2013-05-13 10:24:00,51.3,29.0,30.05,WSW,253,2.0,2.0,42,0.00,,,0.00,Wunderground v.1.15,2013-05-13 14:24:00,
2013-05-13 10:30:00,51.4,29.1,30.06,ENE,75,2.0,2.0,42,0.00,,,0.00,Wunderground v.1.15,2013-05-13 14:30:00,
2013-05-13 10:36:00,51.7,28.7,30.06,East,100,2.0,3.0,41,0.00,,,0.00,Wunderground v.1.15,2013-05-13 14:36:00,
2013-05-13 10:41:00,51.9,28.9,30.06,East,97,3.0,3.0,41,0.00,,,0.00,Wunderground v.1.15,2013-05-13 14:41:00,
2013-05-13 10:47:00,51.9,28.9,30.06,ESE,110,3.0,3.0,41,0.00,,,0.00,Wunderground v.1.15,2013-05-13 14:47:00,
2013-05-13 10:55:00,51.6,31.5,30.06,North,353,2.0,3.0,46,0.00,,,0.00,Wunderground v.1.15,2013-05-13 14:55:00,
2013-05-13 11:00:00,52.0,31.3,30.06,East,82,1.0,1.0,45,0.00,,,0.00,Wunderground v.1.15,2013-05-13 15:00:00,
2013-05-13 11:07:00,52.3,27.4,30.06,ENE,62,2.0,3.0,38,0.00,,,0.00,Wunderground v.1.15,2013-05-13 15:07:00,
2013-05-13 11:12:00,52.5,28.2,30.06,East,86,2.0,5.0,39,0.00,,,0.00,Wunderground v.1.15,2013-05-13 15:12:00,
2013-05-13 11:18:00,52.6,29.5,30.06,ESE,123,2.0,5.0,41,0.00,,,0.00,Wunderground v.1.15,2013-05-13 15:18:00,
2013-05-13 11:26:00,53.1,29.4,30.06,East,95,2.0,6.0,40,0.00,,,0.00,Wunderground v.1.15,2013-05-13 15:26:00,
2013-05-13 11:31:00,53.3,27.7,30.05,East,90,2.0,2.0,37,0.00,,,0.00,Wunderground v.1.15,2013-05-13 15:31:00,
2013-05-13 11:37:00,53.3,27.0,30.05,ESE,121,2.0,5.0,36,0.00,,,0.00,Wunderground v.1.15,2013-05-13 15:37:00,
2013-05-13 11:42:00,53.8,28.8,30.05,East,99,3.0,7.0,38,0.00,,,0.00,Wunderground v.1.15,2013-05-13 15:42:00,
2013-05-13 11:47:00,54.2,25.7,30.06,East,95,2.0,7.0,33,0.00,,,0.00,Wunderground v.1.15,2013-05-13 15:47:00,
2013-05-13 11:52:00,54.2,27.1,30.06,ESE,104,1.0,7.0,35,0.00,,,0.00,Wunderground v.1.15,2013-05-13 15:52:00,
2013-05-13 11:57:00,54.5,28.7,30.06,ENE,69,2.0,7.0,37,0.00,,,0.00,Wunderground v.1.15,2013-05-13 15:57:00,
2013-05-13 12:04:00,55.1,25.7,30.05,East,96,2.0,2.0,32,0.00,,,0.00,Wunderground v.1.15,2013-05-13 16:04:00,
2013-05-13 12:10:00,55.1,26.5,30.05,NNW,330,3.0,5.0,33,0.00,,,0.00,Wunderground v.1.15,2013-05-13 16:10:00,
2013-05-13 12:17:00,55.7,27.0,30.04,ENE,73,2.0,5.0,33,0.00,,,0.00,Wunderground v.1.15,2013-05-13 16:17:00,
2013-05-13 12:25:00,56.0,28.0,30.04,East,99,2.0,5.0,34,0.00,,,0.00,Wunderground v.1.15,2013-05-13 16:25:00,
2013-05-13 12:30:00,55.9,23.2,30.03,ESE,106,3.0,7.0,28,0.00,,,0.00,Wunderground v.1.15,2013-05-13 16:30:00,
2013-05-13 12:38:00,56.2,24.3,30.03,East,100,4.0,7.0,29,0.00,,,0.00,Wunderground v.1.15,2013-05-13 16:38:00,
2013-05-13 12:44:00,55.7,23.1,30.03,North,356,5.0,9.0,28,0.00,,,0.00,Wunderground v.1.15,2013-05-13 16:44:00,
2013-05-13 12:50:00,55.7,24.7,30.03,East,82,5.0,5.0,30,0.00,,,0.00,Wunderground v.1.15,2013-05-13 16:50:00,
2013-05-13 12:57:00,56.3,26.8,30.03,NNW,344,4.0,10.0,32,0.00,,,0.00,Wunderground v.1.15,2013-05-13 16:57:00,
2013-05-13 13:02:00,56.6,23.0,30.03,ESE,102,4.0,7.0,27,0.00,,,0.00,Wunderground v.1.15,2013-05-13 17:02:00,
2013-05-13 13:07:00,56.3,22.7,30.03,ESE,114,4.0,7.0,27,0.00,,,0.00,Wunderground v.1.15,2013-05-13 17:07:00,
2013-05-13 13:17:00,57.2,23.5,30.03,East,85,4.0,7.0,27,0.00,,,0.00,Wunderground v.1.15,2013-05-13 17:17:00,
2013-05-13 13:28:00,58.6,26.4,30.03,East,88,3.0,4.0,29,0.00,,,0.00,Wunderground v.1.15,2013-05-13 17:28:00,
2013-05-13 13:38:00,58.0,25.0,30.03,SE,130,6.0,15.0,28,0.00,,,0.00,Wunderground v.1.15,2013-05-13 17:38:00,
2013-05-13 13:45:00,58.6,26.4,30.01,ENE,78,4.0,6.0,29,0.00,,,0.00,Wunderground v.1.15,2013-05-13 17:45:00,
2013-05-13 13:51:00,58.9,25.8,30.01,SE,124,4.0,4.0,28,0.00,,,0.00,Wunderground v.1.15,2013-05-13 17:51:00,
2013-05-13 13:56:00,59.0,27.6,30.01,ESE,109,3.0,7.0,30,0.00,,,0.00,Wunderground v.1.15,2013-05-13 17:56:00,
2013-05-13 14:02:00,58.1,23.3,30.02,ESE,123,3.0,6.0,26,0.00,,,0.00,Wunderground v.1.15,2013-05-13 18:02:00,
2013-05-13 14:07:00,57.3,22.7,30.02,SE,130,4.0,7.0,26,0.00,,,0.00,Wunderground v.1.15,2013-05-13 18:07:00,
2013-05-13 14:12:00,56.9,23.2,30.02,ESE,104,5.0,11.0,27,0.00,,,0.00,Wunderground v.1.15,2013-05-13 18:12:00,
2013-05-13 14:18:00,56.3,23.6,30.02,North,357,5.0,11.0,28,0.00,,,0.00,Wunderground v.1.15,2013-05-13 18:18:00,
2013-05-13 14:25:00,56.0,22.4,30.02,ESE,119,5.0,8.0,27,0.00,,,0.00,Wunderground v.1.15,2013-05-13 18:25:00,
2013-05-13 14:31:00,57.2,24.3,30.01,North,359,3.0,4.0,28,0.00,,,0.00,Wunderground v.1.15,2013-05-13 18:31:00,
2013-05-13 14:37:00,57.6,25.5,30.01,East,92,2.0,4.0,29,0.00,,,0.00,Wunderground v.1.15,2013-05-13 18:37:00,
2013-05-13 14:47:00,58.0,25.0,30.01,ESE,112,4.0,10.0,28,0.00,,,0.00,Wunderground v.1.15,2013-05-13 18:47:00,
2013-05-13 14:55:00,57.8,25.7,30.01,ESE,113,3.0,8.0,29,0.00,,,0.00,Wunderground v.1.15,2013-05-13 18:55:00,
2013-05-13 15:01:00,57.8,24.0,30.01,ESE,119,4.0,4.0,27,0.00,,,0.00,Wunderground v.1.15,2013-05-13 19:01:00,
2013-05-13 15:07:00,56.7,22.2,30.01,NNW,330,5.0,11.0,26,0.00,,,0.00,Wunderground v.1.15,2013-05-13 19:07:00,
2013-05-13 15:15:00,56.0,22.4,30.01,NNW,343,5.0,10.0,27,0.00,,,0.00,Wunderground v.1.15,2013-05-13 19:15:00,
2013-05-13 15:21:00,56.7,26.4,30.01,SE,127,4.0,4.0,31,0.00,,,0.00,Wunderground v.1.15,2013-05-13 19:21:00,
2013-05-13 15:26:00,58.1,23.3,30.01,SE,143,2.0,5.0,26,0.00,,,0.00,Wunderground v.1.15,2013-05-13 19:26:00,
2013-05-13 15:32:00,58.1,24.3,30.01,ESE,114,4.0,6.0,27,0.00,,,0.00,Wunderground v.1.15,2013-05-13 19:32:00,
2013-05-13 15:37:00,57.6,24.7,30.01,SE,133,4.0,6.0,28,0.00,,,0.00,Wunderground v.1.15,2013-05-13 19:37:00,
2013-05-13 15:42:00,57.3,24.4,30.01,North,354,3.0,3.0,28,0.00,,,0.00,Wunderground v.1.15,2013-05-13 19:42:00,
2013-05-13 15:48:00,56.7,23.9,30.00,SE,126,4.0,6.0,28,0.00,,,0.00,Wunderground v.1.15,2013-05-13 19:48:00,
2013-05-13 15:57:00,57.8,24.9,30.00,ESE,107,4.0,6.0,28,0.00,,,0.00,Wunderground v.1.15,2013-05-13 19:57:00,
2013-05-13 16:05:00,57.8,24.9,30.00,SE,144,4.0,5.0,28,0.00,,,0.00,Wunderground v.1.15,2013-05-13 20:05:00,
2013-05-13 16:11:00,58.0,25.0,30.00,North,354,4.0,4.0,28,0.00,,,0.00,Wunderground v.1.15,2013-05-13 20:11:00,
2013-05-13 16:18:00,57.0,23.3,30.00,SE,133,3.0,6.0,27,0.00,,,0.00,Wunderground v.1.15,2013-05-13 20:18:00,
2013-05-13 16:30:00,56.9,24.1,30.00,ESE,114,3.0,3.0,28,0.00,,,0.00,Wunderground v.1.15,2013-05-13 20:30:00,
2013-05-13 16:37:00,57.0,24.2,30.00,SSE,151,3.0,7.0,28,0.00,,,0.00,Wunderground v.1.15,2013-05-13 20:37:00,
2013-05-13 16:45:00,56.0,22.4,30.00,SE,145,3.0,6.0,27,0.00,,,0.00,Wunderground v.1.15,2013-05-13 20:45:00,
2013-05-13 16:50:00,55.4,22.8,30.00,SSW,200,3.0,3.0,28,0.00,,,0.00,Wunderground v.1.15,2013-05-13 20:50:00,
2013-05-13 16:58:00,55.3,23.5,30.00,SE,127,3.0,3.0,29,0.00,,,0.00,Wunderground v.1.15,2013-05-13 20:58:00,
2013-05-13 17:05:00,55.4,23.6,30.01,ESE,107,3.0,4.0,29,0.00,,,0.00,Wunderground v.1.15,2013-05-13 21:05:00,
2013-05-13 17:10:00,55.7,22.2,30.01,SSE,152,4.0,8.0,27,0.00,,,0.00,Wunderground v.1.15,2013-05-13 21:10:00,
2013-05-13 17:17:00,55.9,22.4,30.00,SSE,158,4.0,8.0,27,0.00,,,0.00,Wunderground v.1.15,2013-05-13 21:17:00,
2013-05-13 17:22:00,55.7,22.2,30.00,SE,145,3.0,5.0,27,0.00,,,0.00,Wunderground v.1.15,2013-05-13 21:22:00,
2013-05-13 17:28:00,55.6,23.8,30.00,SE,140,3.0,5.0,29,0.00,,,0.00,Wunderground v.1.15,2013-05-13 21:28:00,
2013-05-13 17:37:00,55.9,23.2,30.00,SE,141,4.0,6.0,28,0.00,,,0.00,Wunderground v.1.15,2013-05-13 21:37:00,
2013-05-13 17:42:00,56.2,22.6,30.00,ESE,120,3.0,4.0,27,0.00,,,0.00,Wunderground v.1.15,2013-05-13 21:42:00,
2013-05-13 17:48:00,56.5,24.6,30.00,SE,141,2.0,4.0,29,0.00,,,0.00,Wunderground v.1.15,2013-05-13 21:48:00,
2013-05-13 17:54:00,56.3,22.7,30.00,SSE,155,2.0,4.0,27,0.00,,,0.00,Wunderground v.1.15,2013-05-13 21:54:00,
2013-05-13 18:00:00,55.7,23.1,30.00,SSE,155,4.0,5.0,28,0.00,,,0.00,Wunderground v.1.15,2013-05-13 22:00:00,
2013-05-13 18:08:00,55.4,22.8,30.00,South,185,4.0,6.0,28,0.00,,,0.00,Wunderground v.1.15,2013-05-13 22:08:00,
2013-05-13 18:16:00,54.7,23.0,30.00,SSE,150,4.0,6.0,29,0.00,,,0.00,Wunderground v.1.15,2013-05-13 22:16:00,
2013-05-13 18:22:00,54.7,21.3,30.00,SSE,161,2.0,3.0,27,0.00,,,0.00,Wunderground v.1.15,2013-05-13 22:22:00,
2013-05-13 18:28:00,54.7,23.0,30.00,SSE,157,2.0,8.0,29,0.00,,,0.00,Wunderground v.1.15,2013-05-13 22:28:00,
2013-05-13 18:36:00,55.1,22.5,30.00,South,169,4.0,6.0,28,0.00,,,0.00,Wunderground v.1.15,2013-05-13 22:36:00,
2013-05-13 18:42:00,55.1,23.4,30.00,SSE,148,3.0,5.0,29,0.00,,,0.00,Wunderground v.1.15,2013-05-13 22:42:00,
2013-05-13 18:47:00,54.8,22.3,30.00,SSE,160,3.0,5.0,28,0.00,,,0.00,Wunderground v.1.15,2013-05-13 22:47:00,
2013-05-13 18:52:00,54.4,23.6,30.00,SSE,162,2.0,3.0,30,0.00,,,0.00,Wunderground v.1.15,2013-05-13 22:52:00,
2013-05-13 18:58:00,54.1,21.7,30.00,SSE,157,2.0,3.0,28,0.00,,,0.00,Wunderground v.1.15,2013-05-13 22:58:00,
2013-05-13 19:08:00,54.2,22.6,30.01,South,178,1.0,1.0,29,0.00,,,0.00,Wunderground v.1.15,2013-05-13 23:08:00,
2013-05-13 19:15:00,53.9,22.3,30.01,SSE,168,1.0,5.0,29,0.00,,,0.00,Wunderground v.1.15,2013-05-13 23:15:00,
2013-05-13 19:21:00,53.6,22.9,30.01,SSE,151,1.0,2.0,30,0.00,,,0.00,Wunderground v.1.15,2013-05-13 23:21:00,
2013-05-13 19:28:00,53.3,24.2,30.01,SSE,147,1.0,6.0,32,0.00,,,0.00,Wunderground v.1.15,2013-05-13 23:28:00,
2013-05-13 19:36:00,52.9,24.5,30.01,SSE,147,1.0,2.0,33,0.00,,,0.00,Wunderground v.1.15,2013-05-13 23:36:00,
2013-05-13 19:41:00,52.8,24.5,30.01,SE,145,1.0,1.0,33,0.00,,,0.00,Wunderground v.1.15,2013-05-13 23:41:00,
2013-05-13 19:47:00,52.6,25.0,30.02,SE,143,0.0,1.0,34,0.00,,,0.00,Wunderground v.1.15,2013-05-13 23:47:00,
2013-05-13 19:52:00,52.6,25.0,30.02,SE,141,0.0,0.0,34,0.00,,,0.00,Wunderground v.1.15,2013-05-13 23:52:00,
2013-05-13 19:57:00,52.5,24.9,30.02,SSE,147,0.0,0.0,34,0.00,,,0.00,Wunderground v.1.15,2013-05-13 23:57:00,
2013-05-13 20:06:00,52.0,25.8,30.02,East,83,0.0,0.0,36,0.00,,,0.00,Wunderground v.1.15,2013-05-14 00:06:00,
2013-05-13 20:12:00,51.6,26.1,30.02,NE,48,0.0,2.0,37,0.00,,,0.00,Wunderground v.1.15,2013-05-14 00:12:00,
2013-05-13 20:17:00,51.3,24.5,30.03,NE,48,0.0,2.0,35,0.00,,,0.00,Wunderground v.1.15,2013-05-14 00:17:00,
2013-05-13 20:22:00,50.8,25.4,30.03,NE,48,0.0,0.0,37,0.00,,,0.00,Wunderground v.1.15,2013-05-14 00:22:00,
2013-05-13 20:28:00,50.5,25.8,30.03,NE,48,0.0,0.0,38,0.00,,,0.00,Wunderground v.1.15,2013-05-14 00:28:00,
2013-05-13 20:35:00,50.1,26.7,30.03,NE,48,0.0,0.0,40,0.00,,,0.00,Wunderground v.1.15,2013-05-14 00:35:00,
2013-05-13 20:41:00,49.6,26.2,30.03,NE,48,0.0,0.0,40,0.00,,,0.00,Wunderground v.1.15,2013-05-14 00:41:00,
2013-05-13 20:46:00,49.4,26.1,30.04,NE,48,0.0,0.0,40,0.00,,,0.00,Wunderground v.1.15,2013-05-14 00:46:00,
2013-05-13 20:52:00,48.9,26.2,30.04,NE,48,0.0,0.0,41,0.00,,,0.00,Wunderground v.1.15,2013-05-14 00:52:00,
2013-05-13 20:58:00,48.6,25.9,30.04,NE,48,0.0,0.0,41,0.00,,,0.00,Wunderground v.1.15,2013-05-14 00:58:00,
2013-05-13 21:11:00,47.7,26.3,30.05,NE,48,0.0,0.0,43,0.00,,,0.00,Wunderground v.1.15,2013-05-14 01:11:00,
2013-05-13 21:18:00,47.3,25.9,30.06,NE,48,0.0,0.0,43,0.00,,,0.00,Wunderground v.1.15,2013-05-14 01:18:00,
2013-05-13 21:25:00,46.7,28.0,30.06,NE,48,0.0,0.0,48,0.00,,,0.00,Wunderground v.1.15,2013-05-14 01:25:00,
2013-05-13 21:31:00,46.2,30.0,30.07,NE,48,0.0,0.0,53,0.00,,,0.00,Wunderground v.1.15,2013-05-14 01:31:00,
2013-05-13 21:37:00,45.4,29.7,30.07,NE,48,0.0,0.0,54,0.00,,,0.00,Wunderground v.1.15,2013-05-14 01:37:00,
2013-05-13 21:45:00,44.6,28.5,30.08,NE,48,0.0,0.0,53,0.00,,,0.00,Wunderground v.1.15,2013-05-14 01:45:00,
2013-05-13 21:51:00,44.8,26.8,30.08,NE,48,0.0,0.0,49,0.00,,,0.00,Wunderground v.1.15,2013-05-14 01:51:00,
2013-05-13 21:57:00,45.2,26.1,30.08,NE,48,0.0,1.0,47,0.00,,,0.00,Wunderground v.1.15,2013-05-14 01:57:00,
2013-05-13 22:07:00,45.1,28.0,30.09,NE,48,0.0,0.0,51,0.00,,,0.00,Wunderground v.1.15,2013-05-14 02:07:00,
2013-05-13 22:12:00,44.8,29.6,30.09,NE,48,0.0,0.0,55,0.00,,,0.00,Wunderground v.1.15,2013-05-14 02:12:00,
2013-05-13 22:17:00,44.5,28.9,30.09,NE,48,0.0,0.0,54,0.00,,,0.00,Wunderground v.1.15,2013-05-14 02:17:00,
2013-05-13 22:22:00,44.2,28.6,30.09,NE,48,0.0,0.0,54,0.00,,,0.00,Wunderground v.1.15,2013-05-14 02:22:00,
2013-05-13 22:28:00,43.9,29.2,30.09,NE,48,0.0,0.0,56,0.00,,,0.00,Wunderground v.1.15,2013-05-14 02:28:00,
2013-05-13 22:34:00,43.6,29.4,30.09,ENE,58,0.0,0.0,57,0.00,,,0.00,Wunderground v.1.15,2013-05-14 02:34:00,
2013-05-13 22:40:00,43.3,29.9,30.09,NE,48,0.0,0.0,59,0.00,,,0.00,Wunderground v.1.15,2013-05-14 02:40:00,
2013-05-13 22:47:00,43.1,29.7,30.10,NE,48,0.0,0.0,59,0.00,,,0.00,Wunderground v.1.15,2013-05-14 02:47:00,
2013-05-13 22:57:00,42.6,30.1,30.10,NE,48,0.0,0.0,61,0.00,,,0.00,Wunderground v.1.15,2013-05-14 02:57:00,
2013-05-13 23:05:00,42.3,30.2,30.10,NE,48,0.0,0.0,62,0.00,,,0.00,Wunderground v.1.15,2013-05-14 03:05:00,
2013-05-13 23:11:00,42.3,31.0,30.10,NE,48,0.0,0.0,64,0.00,,,0.00,Wunderground v.1.15,2013-05-14 03:11:00,
2013-05-13 23:16:00,42.2,31.3,30.10,NE,48,0.0,0.0,65,0.00,,,0.00,Wunderground v.1.15,2013-05-14 03:16:00,
2013-05-13 23:21:00,41.9,31.4,30.10,NE,48,0.0,0.0,66,0.00,,,0.00,Wunderground v.1.15,2013-05-14 03:21:00,
2013-05-13 23:26:00,41.9,31.4,30.10,NE,48,0.0,0.0,66,0.00,,,0.00,Wunderground v.1.15,2013-05-14 03:26:00,
2013-05-13 23:32:00,41.8,31.3,30.11,NE,48,0.0,1.0,66,0.00,,,0.00,Wunderground v.1.15,2013-05-14 03:32:00,
2013-05-13 23:37:00,41.8,30.9,30.11,NE,48,0.0,1.0,65,0.00,,,0.00,Wunderground v.1.15,2013-05-14 03:37:00,
2013-05-13 23:45:00,41.8,31.3,30.11,NE,48,0.0,0.0,66,0.00,,,0.00,Wunderground v.1.15,2013-05-14 03:45:00,
2013-05-13 23:51:00,41.8,31.3,30.11,NE,48,0.0,0.0,66,0.00,,,0.00,Wunderground v.1.15,2013-05-14 03:51:00,
2013-05-13 23:56:00,41.6,31.4,30.11,NE,48,0.0,0.0,67,0.00,,,0.00,Wunderground v.1.15,2013-05-14 03:56:00,